Terminal Aerodrome Forecast
Issued by NWS Paducah, KY

Home | Current Version | Previous Version | Text Only | Print | Product List | Glossary On
Versions: 1 2 3 4 5 6 7 8 9 10 11 12 13 14 15 16 17 18 19
000
FTUS43 KPAH 202057 AAB
TAFPAH
TAF AMD
KPAH 202057Z 2021/2118 01008KT 5SM -SHRA BR OVC007
     FM202300 36006KT P6SM OVC007
     FM211600 36012KT P6SM BKN020=

USA.gov is the U.S. government's official web portal to all federal, state and local government web resources and services.